Time;durP1;ratioP1;P1;durP2;ratioP2;P2;SDS_P1;SDS_P2;PMS_P1;PMS_P2;Temp;Humidity;BMP_temperature;BMP_pressure;BME280_temperature;BME280_humidity;BME280_pressure;Samples;Min_cycle;Max_cycle;Signal;HPM_P1;HPM_P2
2024/03/31 00:01:18;;;;;;;9.23;5.63;;;11.60;99.90;;;;;;5033306;28;20288;-78
2024/03/31 00:03:46;;;;;;;7.57;6.13;;;11.60;99.90;;;;;;5033045;28;20558;-78
2024/03/31 00:06:12;;;;;;;8.38;6.72;;;11.60;99.90;;;;;;5031556;28;20170;-78
2024/03/31 00:08:38;;;;;;;9.80;8.63;;;11.50;99.90;;;;;;5032982;28;20184;-78
2024/03/31 00:11:07;;;;;;;10.20;7.50;;;11.50;99.90;;;;;;5033059;28;20205;-78
2024/03/31 00:13:33;;;;;;;9.65;6.75;;;11.50;99.90;;;;;;5031667;28;20181;-78
2024/03/31 00:15:59;;;;;;;10.15;7.53;;;11.50;99.90;;;;;;5014534;28;20297;-78
2024/03/31 00:18:25;;;;;;;8.30;7.03;;;11.50;99.90;;;;;;5031784;28;20711;-78
2024/03/31 00:20:55;;;;;;;8.23;6.80;;;11.50;99.90;;;;;;5034010;28;21040;-78
2024/03/31 00:23:21;;;;;;;7.85;7.05;;;11.50;99.90;;;;;;5032927;28;20249;-78
2024/03/31 00:25:58;;;;;;;7.97;6.30;;;11.50;99.90;;;;;;5032652;28;20624;-78
2024/03/31 00:28:24;;;;;;;9.95;6.40;;;11.50;99.90;;;;;;5037771;28;20201;-78
2024/03/31 00:30:57;;;;;;;9.75;7.00;;;11.60;99.90;;;;;;5033095;28;20190;-78
2024/03/31 00:33:24;;;;;;;10.40;6.97;;;11.60;99.90;;;;;;5031252;28;20177;-78
2024/03/31 00:35:54;;;;;;;7.88;6.47;;;11.60;99.90;;;;;;5014399;28;20192;-78
2024/03/31 00:38:20;;;;;;;7.93;6.30;;;11.60;99.90;;;;;;5031078;28;20209;-78
2024/03/31 00:40:46;;;;;;;9.87;7.43;;;11.60;99.90;;;;;;5030958;28;20284;-78
2024/03/31 00:43:12;;;;;;;8.33;6.33;;;11.60;99.90;;;;;;5032452;28;20208;-78
2024/03/31 00:45:39;;;;;;;8.85;7.05;;;11.60;99.90;;;;;;5031094;28;20177;-78
2024/03/31 00:48:06;;;;;;;6.78;6.07;;;11.60;99.90;;;;;;5014064;28;20235;-78
2024/03/31 00:50:31;;;;;;;8.45;6.15;;;11.60;99.90;;;;;;5013756;28;20675;-78
2024/03/31 00:52:57;;;;;;;6.73;6.03;;;11.60;99.90;;;;;;5032058;28;20209;-78
2024/03/31 00:55:23;;;;;;;7.30;6.23;;;11.60;99.90;;;;;;5032085;28;20212;-78
2024/03/31 00:57:49;;;;;;;8.23;7.10;;;11.60;99.90;;;;;;5032712;28;20212;-78
2024/03/31 01:00:16;;;;;;;6.83;5.57;;;11.60;99.90;;;;;;5023588;28;20529;-78
2024/03/31 01:02:42;;;;;;;7.88;6.32;;;11.60;99.90;;;;;;5014009;28;20178;-78
2024/03/31 01:05:08;;;;;;;7.07;5.90;;;11.60;99.90;;;;;;5014987;28;20173;-77
2024/03/31 01:07:34;;;;;;;6.57;5.80;;;11.60;99.90;;;;;;5030160;28;20185;-77
2024/03/31 01:10:01;;;;;;;8.20;6.77;;;11.60;99.90;;;;;;5034237;28;20631;-77
2024/03/31 01:12:27;;;;;;;8.50;6.55;;;11.60;99.90;;;;;;5035970;28;20177;-77
2024/03/31 01:14:53;;;;;;;8.77;7.63;;;11.60;99.90;;;;;;5013911;28;20169;-77
2024/03/31 01:17:19;;;;;;;8.40;7.30;;;11.60;99.90;;;;;;5030152;28;20207;-77
2024/03/31 01:19:44;;;;;;;7.23;6.33;;;11.60;99.90;;;;;;5013709;28;20197;-77
2024/03/31 01:22:10;;;;;;;6.03;5.40;;;11.60;99.90;;;;;;5031648;28;20611;-77
2024/03/31 01:24:36;;;;;;;9.07;7.15;;;11.60;99.90;;;;;;5031473;28;20259;-77
2024/03/31 01:27:02;;;;;;;7.07;6.37;;;11.60;99.90;;;;;;5031288;28;20182;-77
2024/03/31 01:29:28;;;;;;;7.13;6.07;;;11.60;99.90;;;;;;5013786;28;20300;-77
2024/03/31 01:31:54;;;;;;;9.67;7.03;;;11.60;99.90;;;;;;5013713;28;20536;-77
2024/03/31 01:34:19;;;;;;;7.07;5.37;;;11.60;99.90;;;;;;5030142;28;20185;-76
2024/03/31 01:36:45;;;;;;;5.73;4.50;;;11.60;99.90;;;;;;5031840;28;20775;-77
2024/03/31 01:39:13;;;;;;;6.60;5.00;;;11.60;99.90;;;;;;5030036;28;20699;-77
2024/03/31 01:41:38;;;;;;;8.80;5.90;;;11.60;99.90;;;;;;5030056;28;20653;-77
2024/03/31 01:44:04;;;;;;;6.20;5.60;;;11.70;99.90;;;;;;5029905;28;20173;-77
2024/03/31 01:46:30;;;;;;;7.90;6.60;;;11.70;99.90;;;;;;5029785;28;20643;-77
2024/03/31 01:48:55;;;;;;;7.77;6.60;;;11.70;99.90;;;;;;5041383;28;20186;-77
2024/03/31 01:51:21;;;;;;;8.40;6.70;;;11.70;99.90;;;;;;5029590;28;20291;-77
2024/03/31 01:53:47;;;;;;;8.40;6.60;;;11.70;99.90;;;;;;5030994;28;20176;-77
2024/03/31 01:56:13;;;;;;;10.13;5.90;;;11.70;99.90;;;;;;5030880;28;20209;-77
2024/03/31 01:58:39;;;;;;;9.27;5.90;;;11.70;99.90;;;;;;5013427;28;20536;-77
2024/03/31 02:01:04;;;;;;;7.67;6.57;;;11.80;99.90;;;;;;5029292;28;20190;-77
2024/03/31 02:03:30;;;;;;;5.90;4.07;;;11.80;99.90;;;;;;5012869;28;20170;-76
2024/03/31 02:05:56;;;;;;;5.00;3.80;;;11.80;99.90;;;;;;5012851;28;20580;-77
2024/03/31 02:08:22;;;;;;;5.30;4.37;;;11.80;99.90;;;;;;5031085;28;21130;-77
2024/03/31 02:10:47;;;;;;;5.40;4.07;;;11.90;99.90;;;;;;5029732;28;20260;-77
2024/03/31 02:13:13;;;;;;;7.33;4.30;;;11.90;99.90;;;;;;5013791;28;20602;-77
2024/03/31 02:15:43;;;;;;;7.28;3.70;;;11.90;99.90;;;;;;5029552;28;20178;-77
2024/03/31 02:18:09;;;;;;;8.98;3.08;;;11.90;99.90;;;;;;5029213;28;20197;-76
2024/03/31 02:20:35;;;;;;;6.93;3.20;;;12.00;99.90;;;;;;5029375;28;20221;-77
2024/03/31 02:23:01;;;;;;;5.80;3.43;;;12.00;99.90;;;;;;5029400;28;20190;-77
2024/03/31 02:25:26;;;;;;;7.77;3.07;;;12.00;99.90;;;;;;5030755;28;20212;-77
2024/03/31 02:27:52;;;;;;;4.33;2.87;;;12.10;99.90;;;;;;5012645;28;20178;-77
2024/03/31 02:30:18;;;;;;;7.63;2.57;;;12.10;99.90;;;;;;5029546;28;20686;-78
2024/03/31 02:32:43;;;;;;;6.60;2.80;;;12.10;99.90;;;;;;5012948;28;20189;-77
2024/03/31 02:35:09;;;;;;;8.47;2.37;;;12.10;99.90;;;;;;5012803;28;20182;-77
2024/03/31 02:37:35;;;;;;;4.57;2.87;;;12.20;99.90;;;;;;5029164;28;20208;-77
2024/03/31 02:40:01;;;;;;;7.10;2.67;;;12.10;99.90;;;;;;5029364;28;20212;-77
2024/03/31 02:42:26;;;;;;;4.70;2.30;;;12.10;99.90;;;;;;5012801;28;20177;-77
2024/03/31 02:44:52;;;;;;;6.40;2.90;;;12.10;99.90;;;;;;5012763;28;20170;-77
2024/03/31 02:47:18;;;;;;;5.90;2.37;;;12.10;99.90;;;;;;5029111;28;20548;-77
2024/03/31 02:49:43;;;;;;;4.97;2.43;;;12.10;99.90;;;;;;5029351;28;20204;-77
2024/03/31 02:52:10;;;;;;;6.85;2.10;;;12.00;99.90;;;;;;5012711;28;20193;-77
2024/03/31 02:54:37;;;;;;;4.43;2.55;;;12.00;99.90;;;;;;5029282;28;20185;-78
2024/03/31 02:57:03;;;;;;;6.80;2.80;;;11.90;99.90;;;;;;5028773;28;20193;-78
2024/03/31 02:59:31;;;;;;;6.13;3.15;;;11.90;99.90;;;;;;5029097;28;20563;-77
2024/03/31 03:02:00;;;;;;;4.75;2.10;;;11.80;99.90;;;;;;5012674;28;20170;-77
2024/03/31 03:04:26;;;;;;;6.22;2.30;;;11.70;99.90;;;;;;5029019;28;20170;-78
2024/03/31 03:06:55;;;;;;;5.80;3.20;;;11.70;99.90;;;;;;5012300;28;20212;-77
2024/03/31 03:09:22;;;;;;;5.53;2.40;;;11.70;99.90;;;;;;5031608;28;20209;-77
2024/03/31 03:11:48;;;;;;;4.72;2.78;;;11.60;99.90;;;;;;5038689;28;21318;-77
2024/03/31 03:14:13;;;;;;;7.30;2.90;;;11.60;99.90;;;;;;5032957;28;20269;-77
2024/03/31 03:16:39;;;;;;;4.90;2.63;;;11.50;99.90;;;;;;5015957;28;20209;-77
2024/03/31 03:19:05;;;;;;;4.00;2.50;;;11.40;99.90;;;;;;5032590;28;20591;-77
2024/03/31 03:21:31;;;;;;;5.40;2.80;;;11.40;99.90;;;;;;5016183;28;20170;-77
2024/03/31 03:23:57;;;;;;;6.33;2.13;;;11.40;99.90;;;;;;5032557;28;20220;-77
2024/03/31 03:26:22;;;;;;;6.60;2.27;;;11.30;99.90;;;;;;5019687;28;20593;-77
2024/03/31 03:28:48;;;;;;;5.37;2.20;;;11.30;99.90;;;;;;5033864;28;20660;-77
2024/03/31 03:31:14;;;;;;;6.50;2.70;;;11.30;99.90;;;;;;5015786;28;20189;-77
2024/03/31 03:33:42;;;;;;;10.73;3.30;;;11.20;99.90;;;;;;5032300;28;20170;-77
2024/03/31 03:36:08;;;;;;;8.37;2.60;;;11.20;99.90;;;;;;5015412;28;20181;-77
2024/03/31 03:38:34;;;;;;;8.50;3.40;;;11.20;99.90;;;;;;5032272;28;20174;-77
2024/03/31 03:41:03;;;;;;;5.45;2.47;;;11.20;99.90;;;;;;5015592;28;20186;-77
2024/03/31 03:43:32;;;;;;;3.67;1.93;;;11.20;99.90;;;;;;5015522;28;20170;-77
2024/03/31 03:46:02;;;;;;;4.68;2.15;;;11.20;99.90;;;;;;5031874;28;20635;-77
2024/03/31 03:48:28;;;;;;;6.28;2.25;;;11.20;99.90;;;;;;5023649;28;20174;-77
2024/03/31 03:50:54;;;;;;;4.97;1.90;;;11.20;99.90;;;;;;5033126;28;20703;-77
2024/03/31 03:53:20;;;;;;;6.57;2.47;;;11.20;99.90;;;;;;5027828;28;20588;-77
2024/03/31 03:55:46;;;;;;;6.40;2.77;;;11.20;99.90;;;;;;5013933;28;20658;-77
2024/03/31 03:58:12;;;;;;;5.90;2.92;;;11.10;99.90;;;;;;5031231;28;20635;-77
2024/03/31 04:00:40;;;;;;;7.50;3.53;;;11.10;99.90;;;;;;5031544;28;20256;-77
2024/03/31 04:03:06;;;;;;;8.27;2.58;;;11.10;99.90;;;;;;5035174;28;20181;-77
2024/03/31 04:05:32;;;;;;;9.57;2.43;;;11.10;99.90;;;;;;5040472;28;20185;-77
2024/03/31 04:07:57;;;;;;;5.80;3.00;;;11.10;99.90;;;;;;5014774;28;20182;-77
2024/03/31 04:10:23;;;;;;;6.47;2.60;;;11.10;99.90;;;;;;5015105;28;20248;-77
2024/03/31 04:12:49;;;;;;;4.27;2.20;;;11.10;99.90;;;;;;5039664;28;20187;-77
2024/03/31 04:15:15;;;;;;;6.90;2.22;;;11.10;99.90;;;;;;5014904;28;20220;-77
2024/03/31 04:17:41;;;;;;;7.43;2.50;;;11.10;99.90;;;;;;5014619;28;20221;-77
2024/03/31 04:20:07;;;;;;;7.60;2.67;;;11.10;99.90;;;;;;5014755;28;20292;-79
2024/03/31 04:22:33;;;;;;;6.03;2.50;;;11.10;99.90;;;;;;5027991;28;20731;-80
2024/03/31 04:24:59;;;;;;;8.82;3.22;;;11.10;99.90;;;;;;5011665;28;20581;-79
2024/03/31 04:27:25;;;;;;;6.67;2.47;;;11.20;99.90;;;;;;5031061;28;20173;-80
2024/03/31 04:29:51;;;;;;;7.03;2.10;;;11.10;99.90;;;;;;5031288;28;20694;-79
2024/03/31 04:32:16;;;;;;;6.27;2.10;;;11.10;99.90;;;;;;5039711;28;20180;-79
2024/03/31 04:34:42;;;;;;;4.38;1.77;;;11.20;99.90;;;;;;5032324;28;20182;-79
2024/03/31 04:37:09;;;;;;;4.97;1.63;;;11.20;99.90;;;;;;5030686;28;20548;-79
2024/03/31 04:39:36;;;;;;;9.95;3.65;;;11.20;99.90;;;;;;5014616;28;20193;-79
2024/03/31 04:42:01;;;;;;;7.33;2.53;;;11.20;99.90;;;;;;5038303;28;20192;-80
2024/03/31 04:44:27;;;;;;;4.83;1.90;;;11.20;99.90;;;;;;5021277;28;20181;-80
2024/03/31 04:46:53;;;;;;;5.50;2.50;;;11.30;99.90;;;;;;5031870;28;21005;-80
2024/03/31 04:49:19;;;;;;;4.93;2.20;;;11.30;99.90;;;;;;5030895;28;20177;-80
2024/03/31 04:51:50;;;;;;;7.53;2.80;;;11.30;99.90;;;;;;5031077;28;20631;-80
2024/03/31 04:54:19;;;;;;;10.25;3.10;;;11.40;99.90;;;;;;5035485;28;20177;-80
2024/03/31 04:56:48;;;;;;;6.25;2.60;;;11.40;99.90;;;;;;5037713;28;20614;-80
2024/03/31 04:59:18;;;;;;;5.88;2.35;;;11.40;99.90;;;;;;5030854;28;20585;-80
2024/03/31 05:01:43;;;;;;;8.20;1.87;;;11.40;99.90;;;;;;5030628;28;20162;-80
2024/03/31 05:04:10;;;;;;;12.97;2.70;;;11.50;99.90;;;;;;5030146;28;20219;-80
2024/03/31 05:06:36;;;;;;;6.00;2.10;;;11.50;99.90;;;;;;5027053;28;20582;-79
2024/03/31 05:09:03;;;;;;;8.03;2.53;;;11.50;99.90;;;;;;5020334;28;20651;-80
2024/03/31 05:11:29;;;;;;;5.18;2.08;;;11.60;99.90;;;;;;5030534;28;20699;-79
2024/03/31 05:13:54;;;;;;;6.17;2.37;;;11.50;99.90;;;;;;5030776;28;20224;-80
2024/03/31 05:16:21;;;;;;;9.60;2.42;;;11.50;99.90;;;;;;5017266;28;20172;-79
2024/03/31 05:18:51;;;;;;;3.60;1.87;;;11.50;99.90;;;;;;5038445;28;20162;-80
2024/03/31 05:21:17;;;;;;;5.22;2.15;;;11.50;99.90;;;;;;5030080;28;20209;-80
2024/03/31 05:23:45;;;;;;;8.10;1.70;;;11.50;99.90;;;;;;5038522;28;20277;-79
2024/03/31 05:26:13;;;;;;;6.90;1.30;;;11.50;99.90;;;;;;5029993;28;20178;-79
2024/03/31 05:28:42;;;;;;;4.47;1.45;;;11.50;99.90;;;;;;5016913;28;20253;-79
2024/03/31 05:31:08;;;;;;;6.10;1.88;;;11.60;99.90;;;;;;5015457;28;20200;-79
2024/03/31 05:33:48;;;;;;;5.40;1.90;;;11.60;99.90;;;;;;5034651;28;20296;-79
2024/03/31 05:36:13;;;;;;;5.10;1.30;;;11.60;99.90;;;;;;5030019;28;20268;-80
2024/03/31 05:38:39;;;;;;;3.50;1.50;;;11.60;99.90;;;;;;5030166;28;20201;-79
2024/03/31 05:41:10;;;;;;;8.80;2.17;;;11.70;99.90;;;;;;5013454;28;20194;-80
2024/03/31 05:43:36;;;;;;;8.77;2.00;;;11.70;99.90;;;;;;5019118;28;20216;-80
2024/03/31 05:46:02;;;;;;;5.03;1.53;;;11.70;99.90;;;;;;5015536;28;20620;-80
2024/03/31 05:48:28;;;;;;;4.50;1.60;;;11.70;99.90;;;;;;5046397;28;20174;-80
2024/03/31 05:50:54;;;;;;;4.60;1.67;;;11.80;99.90;;;;;;5030279;28;20207;-82
2024/03/31 05:53:22;;;;;;;6.78;1.90;;;11.80;99.90;;;;;;5025397;28;20289;-80
2024/03/31 05:55:48;;;;;;;8.00;1.85;;;11.90;99.90;;;;;;5034165;28;20176;-77
2024/03/31 05:58:13;;;;;;;2.30;1.20;;;11.80;99.90;;;;;;5029351;28;20600;-77
2024/03/31 06:00:39;;;;;;;6.83;1.27;;;11.90;99.90;;;;;;5029420;28;20197;-77
2024/03/31 06:03:06;;;;;;;8.38;1.77;;;11.90;99.90;;;;;;5013277;28;20236;-77
2024/03/31 06:05:32;;;;;;;3.73;1.37;;;12.00;99.90;;;;;;5030115;28;20173;-76
2024/03/31 06:07:58;;;;;;;4.70;1.30;;;12.00;99.90;;;;;;5012864;28;20205;-76
2024/03/31 06:10:24;;;;;;;3.27;1.50;;;12.00;99.90;;;;;;5032424;28;20240;-77
2024/03/31 06:12:51;;;;;;;6.07;1.42;;;12.00;99.90;;;;;;5013316;28;20672;-77
2024/03/31 06:15:17;;;;;;;5.37;1.53;;;12.00;99.90;;;;;;5033432;28;20264;-78
2024/03/31 06:17:44;;;;;;;7.82;2.05;;;12.00;99.90;;;;;;5018323;28;20232;-77
2024/03/31 06:20:12;;;;;;;6.03;2.40;;;12.00;99.90;;;;;;5012902;28;20220;-77
2024/03/31 06:22:41;;;;;;;3.75;1.33;;;12.10;99.90;;;;;;5029431;28;20186;-77
2024/03/31 06:25:08;;;;;;;5.03;1.30;;;12.10;99.90;;;;;;5012514;28;20272;-77
2024/03/31 06:27:35;;;;;;;8.10;2.28;;;12.10;99.90;;;;;;5013183;28;20176;-77
2024/03/31 06:30:02;;;;;;;5.03;1.80;;;12.10;99.90;;;;;;5023215;28;20201;-78
2024/03/31 06:32:28;;;;;;;8.63;2.13;;;12.20;99.90;;;;;;5025388;28;20216;-78
2024/03/31 06:34:54;;;;;;;7.40;1.55;;;12.20;99.90;;;;;;5029854;28;20181;-78
2024/03/31 06:37:20;;;;;;;7.10;1.70;;;12.30;99.90;;;;;;5029691;28;20625;-78
2024/03/31 06:39:48;;;;;;;8.00;1.95;;;12.30;99.90;;;;;;5012647;28;20221;-78
2024/03/31 06:42:15;;;;;;;5.20;1.83;;;12.30;99.90;;;;;;5029260;28;20223;-78
2024/03/31 06:44:42;;;;;;;6.65;1.55;;;12.30;99.90;;;;;;5012583;28;20572;-78
2024/03/31 06:47:09;;;;;;;4.80;1.65;;;12.40;99.90;;;;;;5012366;28;20331;-78
2024/03/31 06:49:35;;;;;;;6.38;1.50;;;12.50;99.90;;;;;;5032662;28;20555;-78
2024/03/31 06:52:02;;;;;;;5.97;1.20;;;12.60;99.90;;;;;;5033200;28;20212;-78
2024/03/31 06:54:28;;;;;;;11.23;1.77;;;12.80;99.90;;;;;;5016371;28;20652;-78
2024/03/31 06:56:54;;;;;;;8.40;1.50;;;12.90;99.90;;;;;;5033755;28;20314;-77
2024/03/31 06:59:19;;;;;;;8.57;2.27;;;12.90;99.90;;;;;;5014528;28;20603;-78
2024/03/31 07:01:45;;;;;;;9.23;1.97;;;13.00;99.90;;;;;;5008019;28;21044;-78
2024/03/31 07:04:12;;;;;;;7.57;2.50;;;13.00;99.90;;;;;;5032900;28;20192;-78
2024/03/31 07:06:39;;;;;;;6.60;2.20;;;13.10;99.90;;;;;;5032661;28;20188;-78
2024/03/31 07:09:05;;;;;;;9.33;1.70;;;13.40;99.90;;;;;;5044119;28;20577;-78
2024/03/31 07:11:32;;;;;;;8.87;1.73;;;13.70;99.90;;;;;;5016452;28;20635;-78
2024/03/31 07:13:59;;;;;;;9.13;1.77;;;14.10;99.90;;;;;;5016208;28;21224;-78
2024/03/31 07:16:25;;;;;;;6.23;1.20;;;14.30;99.90;;;;;;5015964;28;20596;-78
2024/03/31 07:18:51;;;;;;;4.43;1.80;;;14.50;99.90;;;;;;5032705;28;20594;-78
2024/03/31 07:21:18;;;;;;;5.83;2.17;;;14.60;99.90;;;;;;5049255;28;20827;-80
2024/03/31 07:23:44;;;;;;;5.93;1.63;;;14.60;99.90;;;;;;5045746;28;21239;-77
2024/03/31 07:26:19;;;;;;;5.17;1.57;;;14.50;99.90;;;;;;5013975;28;20221;-76
2024/03/31 07:28:44;;;;;;;5.43;1.80;;;14.50;99.90;;;;;;5014297;28;20708;-77
2024/03/31 07:31:10;;;;;;;8.10;1.93;;;14.50;99.90;;;;;;5031541;28;20632;-77
2024/03/31 07:33:36;;;;;;;4.90;1.50;;;14.50;99.90;;;;;;5045353;28;21224;-76
2024/03/31 07:36:02;;;;;;;6.27;1.63;;;14.50;99.90;;;;;;5028827;28;20181;-77
2024/03/31 07:38:28;;;;;;;5.17;1.40;;;14.50;99.90;;;;;;5041320;28;20193;-76
2024/03/31 07:40:53;;;;;;;10.00;2.97;;;14.50;99.90;;;;;;5033146;28;20742;-77
2024/03/31 07:43:25;;;;;;;5.30;1.57;;;14.50;99.90;;;;;;5033028;28;20172;-77
2024/03/31 07:45:51;;;;;;;5.93;1.23;;;14.60;99.90;;;;;;5031903;28;20170;-77
2024/03/31 07:48:17;;;;;;;9.13;1.80;;;14.80;99.90;;;;;;5034100;28;20654;-77
2024/03/31 07:50:44;;;;;;;7.43;1.17;;;14.90;99.90;;;;;;5031503;28;20608;-77
2024/03/31 07:53:10;;;;;;;5.60;1.30;;;15.20;99.90;;;;;;5029031;28;20182;-77
2024/03/31 07:55:36;;;;;;;9.80;1.80;;;15.60;99.90;;;;;;5031991;28;20650;-77
2024/03/31 07:58:01;;;;;;;5.37;1.43;;;16.00;99.90;;;;;;5032974;28;20668;-77
2024/03/31 08:00:27;;;;;;;8.97;1.40;;;16.60;99.90;;;;;;5040146;28;20197;-78
2024/03/31 08:02:53;;;;;;;6.83;1.33;;;17.30;99.90;;;;;;5033260;28;20170;-77
2024/03/31 08:05:19;;;;;;;7.20;2.60;;;18.10;99.90;;;;;;5033252;28;20592;-77
2024/03/31 08:07:45;;;;;;;10.93;1.83;;;18.70;99.90;;;;;;5031651;28;20584;-77
2024/03/31 08:10:11;;;;;;;7.90;2.17;;;19.30;99.90;;;;;;5033276;28;20197;-77
2024/03/31 08:12:36;;;;;;;4.23;1.23;;;19.80;99.90;;;;;;5032856;28;20177;-78
2024/03/31 08:15:03;;;;;;;6.90;1.00;;;20.70;99.90;;;;;;5033197;28;20197;-78
2024/03/31 08:17:28;;;;;;;10.60;1.40;;;21.60;99.90;;;;;;5032858;28;20197;-78
2024/03/31 08:19:54;;;;;;;10.17;1.67;;;22.20;99.90;;;;;;5032692;28;20632;-77
2024/03/31 08:22:20;;;;;;;7.10;1.60;;;22.80;99.90;;;;;;5032866;28;20239;-78
2024/03/31 08:24:46;;;;;;;4.80;1.20;;;22.80;99.90;;;;;;5031594;28;20564;-78
2024/03/31 08:27:12;;;;;;;8.37;1.50;;;23.00;99.90;;;;;;5032521;28;20224;-78
2024/03/31 08:29:38;;;;;;;5.00;1.00;;;23.40;99.90;;;;;;5032808;28;21018;-78
2024/03/31 08:32:04;;;;;;;6.27;1.97;;;24.00;99.90;;;;;;5048224;28;20602;-78
2024/03/31 08:34:30;;;;;;;10.27;1.70;;;24.50;99.90;;;;;;5031465;28;20180;-78
2024/03/31 08:36:55;;;;;;;6.90;1.30;;;25.00;99.90;;;;;;5032373;28;20704;-78
2024/03/31 08:39:21;;;;;;;8.93;1.60;;;25.50;99.90;;;;;;5032513;28;20535;-78
2024/03/31 08:41:56;;;;;;;5.53;1.27;;;26.00;99.90;;;;;;5032620;28;20587;-78
2024/03/31 08:44:23;;;;;;;7.27;1.20;;;26.20;99.90;;;;;;5032478;28;20181;-78
2024/03/31 08:46:49;;;;;;;5.60;1.40;;;26.60;99.90;;;;;;5038271;28;20667;-78
2024/03/31 08:49:15;;;;;;;4.93;1.50;;;27.00;99.90;;;;;;5042656;28;20596;-78
2024/03/31 08:51:41;;;;;;;3.77;0.70;;;27.70;99.90;;;;;;5032308;28;20940;-79
2024/03/31 08:54:07;;;;;;;4.60;1.20;;;28.40;99.90;;;;;;5023516;28;20231;-78
2024/03/31 08:56:33;;;;;;;3.10;0.90;;;28.40;99.90;;;;;;5029418;28;20577;-79
2024/03/31 08:59:02;;;;;;;3.40;1.20;;;28.60;99.90;;;;;;5030896;28;20738;-79
2024/03/31 09:01:28;;;;;;;6.03;1.03;;;29.00;99.90;;;;;;5031678;28;20221;-79
2024/03/31 09:03:55;;;;;;;7.27;1.30;;;29.40;99.90;;;;;;5037532;28;20594;-78
2024/03/31 09:06:51;;;;;;;5.57;1.00;;;29.70;99.90;;;;;;5031612;28;20582;-78
2024/03/31 09:09:22;;;;;;;6.50;1.50;;;29.80;99.90;;;;;;5022727;28;20695;-78
2024/03/31 09:11:49;;;;;;;6.93;1.20;;;29.60;99.90;;;;;;5013712;28;20595;-78
2024/03/31 09:14:14;;;;;;;3.97;1.00;;;29.60;99.20;;;;;;5030502;28;20954;-76
2024/03/31 09:16:49;;;;;;;4.97;0.90;;;29.60;98.10;;;;;;5031514;28;20620;-76
2024/03/31 09:19:14;;;;;;;9.63;1.27;;;29.90;98.70;;;;;;5031413;28;20542;-76
2024/03/31 09:21:47;;;;;;;8.30;1.10;;;30.10;97.10;;;;;;5031766;28;20590;-77
2024/03/31 09:24:13;;;;;;;5.10;1.83;;;30.10;96.10;;;;;;5031396;28;20185;-78
2024/03/31 09:26:40;;;;;;;5.57;1.00;;;30.00;93.40;;;;;;5029934;28;20597;-76
2024/03/31 09:29:06;;;;;;;4.90;0.80;;;29.80;90.80;;;;;;5030158;28;21168;-76
2024/03/31 09:31:32;;;;;;;5.47;1.50;;;29.40;86.10;;;;;;5029981;28;20627;-76
2024/03/31 09:33:59;;;;;;;3.50;0.70;;;29.20;86.70;;;;;;5020665;28;20592;-76
2024/03/31 09:36:25;;;;;;;9.70;1.30;;;29.10;86.70;;;;;;5030513;28;20200;-76
2024/03/31 09:38:51;;;;;;;5.20;1.63;;;28.90;85.70;;;;;;5031345;28;20579;-76
2024/03/31 09:41:18;;;;;;;6.40;0.80;;;28.80;86.00;;;;;;5029814;28;20962;-76
2024/03/31 09:43:47;;;;;;;7.83;1.00;;;28.70;78.40;;;;;;5046615;28;20659;-76
2024/03/31 09:46:15;;;;;;;3.40;1.00;;;28.50;79.20;;;;;;5029573;28;20606;-76
2024/03/31 09:48:44;;;;;;;3.33;0.80;;;28.50;83.20;;;;;;5029922;28;20596;-76
2024/03/31 09:51:19;;;;;;;5.93;1.00;;;28.70;83.90;;;;;;5029637;28;21504;-76
2024/03/31 09:54:00;;;;;;;4.53;0.80;;;28.90;81.30;;;;;;5027373;28;20590;-75
2024/03/31 09:56:39;;;;;;;3.30;0.70;;;29.20;87.90;;;;;;5027921;28;20606;-76
2024/03/31 09:59:10;;;;;;;2.70;0.80;;;29.60;83.00;;;;;;5029861;28;20604;-76
2024/03/31 10:01:42;;;;;;;3.20;0.70;;;29.70;82.80;;;;;;5005316;28;20594;-76
2024/03/31 10:04:21;;;;;;;3.50;1.00;;;30.00;85.10;;;;;;5034241;28;20947;-76
2024/03/31 10:06:48;;;;;;;5.03;0.70;;;30.10;83.60;;;;;;5029345;28;20751;-76
2024/03/31 10:09:16;;;;;;;4.33;0.80;;;29.90;74.10;;;;;;5030411;28;20651;-76
2024/03/31 10:11:43;;;;;;;6.43;0.80;;;29.60;74.60;;;;;;5029421;28;20590;-76
2024/03/31 10:14:09;;;;;;;6.53;0.90;;;29.50;73.60;;;;;;5031137;28;20607;-76
2024/03/31 10:16:37;;;;;;;3.70;0.80;;;29.70;78.10;;;;;;5033521;28;20697;-76
2024/03/31 10:19:04;;;;;;;3.60;0.90;;;29.70;75.70;;;;;;5034209;28;20593;-76
2024/03/31 10:21:30;;;;;;;6.70;1.83;;;29.50;71.80;;;;;;5005624;28;20640;-76
2024/03/31 10:23:59;;;;;;;2.50;0.90;;;29.30;71.20;;;;;;5033726;28;20593;-76
2024/03/31 10:26:26;;;;;;;3.30;0.90;;;29.00;69.80;;;;;;5038792;28;21035;-77
2024/03/31 10:28:54;;;;;;;8.10;1.27;;;28.90;71.50;;;;;;5029510;28;21154;-77
2024/03/31 10:31:20;;;;;;;5.00;0.90;;;29.00;69.50;;;;;;5030293;28;20671;-77
2024/03/31 10:33:46;;;;;;;3.33;0.80;;;29.10;67.60;;;;;;5037439;28;20661;-78
2024/03/31 10:36:13;;;;;;;5.60;0.70;;;29.10;70.40;;;;;;5030121;28;20997;-78
2024/03/31 10:38:45;;;;;;;6.60;0.97;;;29.20;66.30;;;;;;5030298;28;20282;-78
2024/03/31 10:41:12;;;;;;;5.80;0.80;;;29.10;66.40;;;;;;5029162;28;20621;-78
2024/03/31 10:43:38;;;;;;;3.90;1.30;;;28.90;67.40;;;;;;5030323;28;20588;-78
2024/03/31 10:46:07;;;;;;;3.00;0.73;;;28.90;68.90;;;;;;5036403;28;20581;-78
2024/03/31 10:48:33;;;;;;;5.40;1.20;;;28.60;63.20;;;;;;5038935;28;20580;-79
2024/03/31 10:51:14;;;;;;;11.03;1.00;;;28.10;59.10;;;;;;5031313;28;20670;-78
2024/03/31 10:53:40;;;;;;;5.63;0.80;;;27.90;64.50;;;;;;5033331;28;20203;-78
2024/03/31 10:56:07;;;;;;;4.30;0.67;;;28.00;66.40;;;;;;5034266;28;20987;-79
2024/03/31 10:58:33;;;;;;;5.10;0.80;;;28.10;67.30;;;;;;5033516;28;20638;-78
2024/03/31 11:01:02;;;;;;;2.80;0.60;;;28.00;63.50;;;;;;5035664;28;21055;-77
2024/03/31 11:03:31;;;;;;;5.67;1.33;;;27.80;62.00;;;;;;5019696;28;20270;-78
2024/03/31 11:06:03;;;;;;;4.57;0.83;;;27.40;60.20;;;;;;5023153;28;21154;-77
2024/03/31 11:08:29;;;;;;;4.57;0.60;;;27.10;62.10;;;;;;5027714;28;20600;-76
2024/03/31 11:10:55;;;;;;;4.00;0.90;;;26.90;63.20;;;;;;5028208;28;20631;-77
2024/03/31 11:13:21;;;;;;;4.47;1.00;;;26.80;64.10;;;;;;5030661;28;20599;-78
2024/03/31 11:15:47;;;;;;;2.93;1.03;;;26.80;64.40;;;;;;5030806;28;20945;-77
2024/03/31 11:18:13;;;;;;;3.70;0.70;;;26.80;65.60;;;;;;5038455;28;20260;-76
2024/03/31 11:20:43;;;;;;;4.60;0.83;;;26.80;63.60;;;;;;5037214;28;20627;-77
2024/03/31 11:23:12;;;;;;;2.60;0.60;;;26.70;62.50;;;;;;5045608;28;20596;-77
2024/03/31 11:25:42;;;;;;;3.10;0.70;;;26.50;61.50;;;;;;5022353;28;20655;-76
2024/03/31 11:28:11;;;;;;;4.77;0.80;;;26.30;62.70;;;;;;5030230;28;20945;-77
2024/03/31 11:30:38;;;;;;;4.77;0.93;;;26.10;58.40;;;;;;5030408;28;20673;-76
2024/03/31 11:33:06;;;;;;;5.73;0.77;;;25.70;58.80;;;;;;5036845;28;20584;-76
2024/03/31 11:35:33;;;;;;;4.03;0.97;;;25.40;59.50;;;;;;5034897;28;20604;-76
2024/03/31 11:38:13;;;;;;;4.57;1.20;;;25.00;58.40;;;;;;5032775;28;20640;-76
2024/03/31 11:40:40;;;;;;;4.63;0.80;;;24.70;57.20;;;;;;5015588;28;20616;-76
2024/03/31 11:43:07;;;;;;;4.77;0.80;;;24.60;58.40;;;;;;5039545;28;20587;-76
2024/03/31 11:45:33;;;;;;;6.10;1.20;;;24.40;58.10;;;;;;5032883;28;20639;-76
2024/03/31 11:47:58;;;;;;;2.90;0.63;;;24.10;58.10;;;;;;5048434;28;20620;-76
2024/03/31 11:50:24;;;;;;;7.53;1.43;;;24.00;59.20;;;;;;5041488;28;20678;-76
2024/03/31 11:52:50;;;;;;;4.37;1.00;;;23.90;59.30;;;;;;5031355;28;20177;-76
2024/03/31 11:55:16;;;;;;;4.87;1.20;;;23.70;60.40;;;;;;5031017;28;20594;-76
2024/03/31 11:57:42;;;;;;;3.37;1.00;;;23.70;61.40;;;;;;5032906;28;20209;-76
2024/03/31 12:00:14;;;;;;;3.70;0.90;;;23.70;61.90;;;;;;5031827;28;20982;-76
2024/03/31 12:02:41;;;;;;;3.50;1.13;;;23.60;63.30;;;;;;5048444;28;20272;-77
2024/03/31 12:05:21;;;;;;;3.80;1.00;;;23.80;66.10;;;;;;5043634;28;20642;-77
2024/03/31 12:07:47;;;;;;;5.70;0.87;;;24.00;67.10;;;;;;5032866;28;20580;-77
2024/03/31 12:10:15;;;;;;;7.17;1.10;;;24.30;68.60;;;;;;5032973;28;20608;-78
2024/03/31 12:12:41;;;;;;;8.07;1.17;;;24.50;67.50;;;;;;5039672;28;20584;-77
2024/03/31 12:15:12;;;;;;;4.23;0.70;;;24.60;64.10;;;;;;5031769;28;20607;-77
2024/03/31 12:17:38;;;;;;;5.03;1.60;;;24.40;63.10;;;;;;5032280;28;20643;-77
2024/03/31 12:20:08;;;;;;;3.40;1.10;;;24.20;63.50;;;;;;5032422;28;20624;-76
2024/03/31 12:22:40;;;;;;;5.77;0.70;;;24.00;62.60;;;;;;5032411;28;20585;-76
2024/03/31 12:25:06;;;;;;;2.97;1.20;;;23.70;61.40;;;;;;5048042;28;20595;-77
2024/03/31 12:27:33;;;;;;;3.97;0.97;;;23.40;63.10;;;;;;5031053;28;20739;-79
2024/03/31 12:29:59;;;;;;;6.17;0.97;;;23.30;63.10;;;;;;5032711;28;20656;-78
2024/03/31 12:32:26;;;;;;;4.30;1.00;;;23.00;60.50;;;;;;5032674;28;20584;-78
2024/03/31 12:34:52;;;;;;;4.50;0.80;;;22.70;60.70;;;;;;5031421;28;20588;-79
2024/03/31 12:37:18;;;;;;;2.60;0.90;;;22.50;62.30;;;;;;5030596;28;20632;-79
2024/03/31 12:39:44;;;;;;;4.00;1.00;;;22.30;62.50;;;;;;5031204;28;20193;-79
2024/03/31 12:42:16;;;;;;;3.00;0.70;;;22.20;63.00;;;;;;5031157;28;20604;-78
2024/03/31 12:44:41;;;;;;;4.40;1.00;;;21.80;60.30;;;;;;5030922;28;20195;-78